Time;durP1;ratioP1;P1;durP2;ratioP2;P2;SDS_P1;SDS_P2;PMS_P1;PMS_P2;Temp;Humidity;BMP_temperature;BMP_pressure;BME280_temperature;BME280_humidity;BME280_pressure;Samples;Min_cycle;Max_cycle;Signal;HPM_P1;HPM_P2
2021/07/16 00:01:34;;;;;;;;;4.00;3.00;;;;;26.75;45.31;102158.88;5082169;28;45457;-73
2021/07/16 00:03:59;;;;;;;;;4.25;3.25;;;;;26.84;44.90;102173.81;5081991;28;45299;-73
2021/07/16 00:06:25;;;;;;;;;2.67;2.00;;;;;26.92;44.97;102188.91;5079420;28;45388;-73
2021/07/16 00:08:50;;;;;;;;;4.33;4.00;;;;;26.85;44.90;102178.13;5063458;28;45408;-73
2021/07/16 00:11:16;;;;;;;;;4.00;4.00;;;;;26.79;45.14;102172.69;5059456;28;45482;-73
2021/07/16 00:13:41;;;;;;;;;3.67;3.67;;;;;26.91;45.01;102192.59;5062738;28;45355;-73
2021/07/16 00:16:07;;;;;;;;;4.00;3.00;;;;;26.82;44.82;102175.00;5061054;28;45405;-73
2021/07/16 00:18:33;;;;;;;;;5.00;3.67;;;;;26.90;44.58;102187.44;5060137;28;45669;-73
2021/07/16 00:20:58;;;;;;;;;5.25;4.00;;;;;26.92;45.05;102190.75;5061557;28;45496;-73
2021/07/16 00:23:24;;;;;;;;;3.25;3.25;;;;;26.74;44.89;102154.53;5061266;28;45209;-73
2021/07/16 00:25:49;;;;;;;;;4.00;4.00;;;;;26.62;45.41;102140.81;5076969;28;45272;-73
2021/07/16 00:28:15;;;;;;;;;4.00;4.00;;;;;26.76;45.16;102167.69;5060446;28;45347;-73
2021/07/16 00:30:40;;;;;;;;;6.50;4.75;;;;;26.70;45.19;102158.59;5064243;28;45282;-73
2021/07/16 00:33:06;;;;;;;;;3.25;3.00;;;;;26.89;45.32;102183.09;5061181;28;45319;-73
2021/07/16 00:35:32;;;;;;;;;3.33;3.33;;;;;26.91;44.67;102195.25;5059853;28;45336;-73
2021/07/16 00:37:57;;;;;;;;;3.67;2.33;;;;;26.88;44.57;102184.13;5070119;28;48003;-73
2021/07/16 00:40:23;;;;;;;;;5.25;4.00;;;;;26.66;44.80;102150.09;5059348;28;45300;-73
2021/07/16 00:42:48;;;;;;;;;2.00;2.00;;;;;26.87;45.33;102179.78;5075820;28;45427;-73
2021/07/16 00:45:15;;;;;;;;;3.75;3.75;;;;;26.63;45.28;102142.44;5079823;28;45418;-73
2021/07/16 00:47:41;;;;;;;;;4.75;4.75;;;;;26.74;45.39;102163.38;5079496;28;48328;-73
2021/07/16 00:50:10;;;;;;;;;4.00;4.00;;;;;26.86;45.07;102178.94;5081351;28;45385;-73
2021/07/16 00:52:37;;;;;;;;;4.25;3.25;;;;;26.90;45.33;102184.78;5080953;28;45227;-73
2021/07/16 00:55:04;;;;;;;;;3.33;3.00;;;;;26.82;45.32;102164.31;5080588;28;45172;-73
2021/07/16 00:57:30;;;;;;;;;3.00;3.00;;;;;26.84;45.42;102167.63;5079173;28;46596;-73
2021/07/16 00:59:55;;;;;;;;;3.75;3.75;;;;;26.59;44.88;102138.50;5080875;28;45358;-73
2021/07/16 01:02:21;;;;;;;;;3.33;3.33;;;;;26.67;45.42;102151.78;5078273;27;45345;-73
2021/07/16 01:04:47;;;;;;;;;5.00;3.00;;;;;26.63;45.08;102148.63;5075763;27;45502;-73
2021/07/16 01:07:12;;;;;;;;;5.00;5.00;;;;;26.73;45.11;102159.03;5074026;28;46243;-73
2021/07/16 01:09:37;;;;;;;;;3.00;3.00;;;;;26.57;45.42;102140.50;5060533;28;45303;-73
2021/07/16 01:12:05;;;;;;;;;3.00;3.00;;;;;26.90;44.86;102196.28;5060665;28;45643;-73
2021/07/16 01:14:31;;;;;;;;;3.67;3.67;;;;;26.80;44.83;102179.69;5060376;28;45410;-73
2021/07/16 01:16:59;;;;;;;;;5.33;4.00;;;;;26.83;45.04;102182.81;5059069;28;45660;-73
2021/07/16 01:19:47;;;;;;;;;4.33;3.00;;;;;26.86;45.05;102186.97;5060355;28;45425;-73
2021/07/16 01:22:15;;;;;;;;;2.75;2.75;;;;;26.88;45.09;102190.28;5058581;28;45360;-72
2021/07/16 01:24:40;;;;;;;;;4.00;4.00;;;;;26.81;44.93;102182.16;5060274;28;45191;-73
2021/07/16 01:27:06;;;;;;;;;3.75;3.75;;;;;26.61;44.90;102147.13;5060187;28;45751;-73
2021/07/16 01:29:32;;;;;;;;;3.00;3.00;;;;;26.78;45.10;102179.03;5064675;28;45243;-73
2021/07/16 01:31:57;;;;;;;;;3.00;3.00;;;;;26.85;45.11;102183.44;5075889;28;45417;-72
2021/07/16 01:34:23;;;;;;;;;4.00;4.00;;;;;26.89;44.67;102194.63;5054520;28;45756;-73
2021/07/16 01:36:48;;;;;;;;;3.67;3.67;;;;;26.62;44.74;102154.97;5074015;28;48006;-73
2021/07/16 01:39:14;;;;;;;;;2.67;2.67;;;;;26.66;45.20;102155.44;5058915;28;45320;-73
2021/07/16 01:41:39;;;;;;;;;3.75;3.75;;;;;26.92;45.39;102194.25;5066930;28;45363;-73
2021/07/16 01:44:06;;;;;;;;;4.00;3.00;;;;;26.92;45.29;102194.25;5080061;28;45390;-73
2021/07/16 01:46:31;;;;;;;;;4.75;4.00;;;;;26.65;45.16;102147.63;5080235;28;46171;-72
2021/07/16 01:48:57;;;;;;;;;3.00;3.00;;;;;26.67;45.22;102158.94;5080309;28;45338;-73
2021/07/16 01:51:22;;;;;;;;;4.00;4.00;;;;;26.61;44.90;102141.81;5079813;28;45665;-73
2021/07/16 01:53:48;;;;;;;;;3.33;3.33;;;;;26.74;44.88;102162.53;5080238;28;45781;-73
2021/07/16 01:56:14;;;;;;;;;3.00;3.00;;;;;26.76;44.79;102162.34;5080143;28;45356;-73
2021/07/16 01:58:39;;;;;;;;;4.67;2.33;;;;;26.63;45.07;102142.44;5079768;28;45238;-73
2021/07/16 02:01:13;;;;;;;;;5.00;4.00;;;;;26.82;44.83;102173.16;5080115;28;45412;-73
2021/07/16 02:03:39;;;;;;;;;5.00;4.33;;;;;26.91;45.12;102187.25;5080014;28;45441;-73
2021/07/16 02:06:05;;;;;;;;;3.00;3.00;;;;;26.72;45.59;102152.06;5078571;28;46186;-72
2021/07/16 02:08:30;;;;;;;;;4.33;4.33;;;;;26.84;45.18;102170.28;5074283;28;45334;-72
2021/07/16 02:10:56;;;;;;;;;5.50;4.50;;;;;26.80;45.04;102163.66;5072742;28;45180;-73
2021/07/16 02:13:23;;;;;;;;;4.00;4.00;;;;;26.87;45.59;102174.44;5057953;28;46050;-73
2021/07/16 02:15:50;;;;;;;;;5.00;3.00;;;;;26.80;45.21;102171.69;5060967;28;45410;-72
2021/07/16 02:18:21;;;;;;;;;3.75;3.75;;;;;26.72;45.27;102156.56;5061787;28;45285;-73
2021/07/16 02:20:47;;;;;;;;;4.50;4.50;;;;;26.88;44.94;102176.91;5062950;28;45398;-73
2021/07/16 02:23:17;;;;;;;;;4.00;3.25;;;;;26.74;45.45;102151.88;5062813;28;45229;-72
2021/07/16 02:25:43;;;;;;;;;3.33;3.33;;;;;26.91;45.36;102176.56;5063328;28;46231;-73
2021/07/16 02:28:21;;;;;;;;;3.67;3.33;;;;;26.90;45.41;102174.09;5061267;28;45886;-73
2021/07/16 02:30:47;;;;;;;;;4.33;4.33;;;;;26.82;44.89;102158.97;5065597;28;45283;-73
2021/07/16 02:33:13;;;;;;;;;3.00;3.00;;;;;26.84;45.48;102163.13;5078622;28;45259;-72
2021/07/16 02:35:39;;;;;;;;;3.33;3.33;;;;;26.75;45.26;102142.84;5063066;28;46317;-73
2021/07/16 02:38:06;;;;;;;;;5.00;4.00;;;;;26.91;44.85;102173.91;5078869;28;45299;-73
2021/07/16 02:40:33;;;;;;;;;3.00;3.00;;;;;26.79;45.16;102149.47;5083689;28;45354;-73
2021/07/16 02:42:58;;;;;;;;;4.00;4.00;;;;;26.91;45.22;102168.56;5082802;28;45464;-73
2021/07/16 02:45:24;;;;;;;;;5.00;5.00;;;;;26.84;44.87;102151.59;5083196;28;46158;-73
2021/07/16 02:47:50;;;;;;;;;4.67;4.67;;;;;26.64;45.37;102130.78;5081805;28;45946;-73
2021/07/16 02:50:20;;;;;;;;;3.33;3.33;;;;;26.77;45.03;102145.34;5083623;28;45231;-73
2021/07/16 02:52:45;;;;;;;;;4.00;3.50;;;;;26.80;45.43;102147.66;5083046;28;45520;-73
2021/07/16 02:55:11;;;;;;;;;4.33;4.33;;;;;26.79;45.23;102154.00;5083001;28;46550;-73
2021/07/16 02:57:38;;;;;;;;;3.75;3.75;;;;;26.87;44.92;102164.59;5081473;28;45316;-72
2021/07/16 03:00:09;;;;;;;;;3.67;3.67;;;;;26.60;44.91;102116.94;5080126;28;45381;-73
2021/07/16 03:02:42;;;;;;;;;3.00;3.00;;;;;26.88;45.08;102160.09;5098070;27;45279;-73
2021/07/16 03:05:10;;;;;;;;;5.00;4.33;;;;;26.91;45.36;102167.72;5082437;28;46261;-73
2021/07/16 03:07:36;;;;;;;;;5.00;5.00;;;;;26.73;44.90;102140.34;5081273;28;45318;-73
2021/07/16 03:10:08;;;;;;;;;3.00;3.00;;;;;26.86;45.45;102160.25;5082914;28;45351;-73
2021/07/16 03:12:36;;;;;;;;;5.75;5.75;;;;;26.92;45.19;102180.91;5083088;28;45395;-73
2021/07/16 03:15:04;;;;;;;;;2.00;2.00;;;;;26.71;45.13;102146.88;5082326;27;46452;-73
2021/07/16 03:17:29;;;;;;;;;3.33;3.33;;;;;26.82;45.42;102161.66;5082370;28;45985;-73
2021/07/16 03:19:55;;;;;;;;;3.00;3.00;;;;;26.79;44.96;102152.16;5084074;28;45710;-73
2021/07/16 03:22:20;;;;;;;;;3.67;3.33;;;;;26.82;44.99;102165.16;5098503;27;45224;-73
2021/07/16 03:24:45;;;;;;;;;3.67;3.67;;;;;26.89;45.35;102177.75;5069494;28;47367;-73
2021/07/16 03:27:11;;;;;;;;;3.00;3.00;;;;;26.74;45.33;102157.22;5061286;28;45399;-73
2021/07/16 03:29:36;;;;;;;;;4.67;3.33;;;;;26.76;45.46;102155.19;5064597;28;45683;-73
2021/07/16 03:32:02;;;;;;;;;3.25;3.25;;;;;26.58;44.79;102132.31;5061960;28;45221;-73
2021/07/16 03:34:27;;;;;;;;;5.67;4.00;;;;;26.71;45.19;102149.56;5061782;28;45481;-73
2021/07/16 03:36:52;;;;;;;;;4.00;4.00;;;;;26.67;44.94;102146.44;5068044;28;45410;-73
2021/07/16 03:39:18;;;;;;;;;4.67;3.00;;;;;26.77;45.13;102161.34;5068689;27;45216;-73
2021/07/16 03:41:43;;;;;;;;;4.00;4.00;;;;;26.66;45.47;102149.25;5068156;28;45302;-73
2021/07/16 03:44:10;;;;;;;;;3.33;3.33;;;;;26.90;45.29;102192.78;5081886;28;45447;-73
2021/07/16 03:46:36;;;;;;;;;2.00;2.00;;;;;26.71;45.27;102165.56;5081099;28;45850;-73
2021/07/16 03:49:02;;;;;;;;;4.00;4.00;;;;;26.82;45.21;102185.66;5081028;28;45495;-73
2021/07/16 03:51:28;;;;;;;;;4.00;4.00;;;;;26.69;45.12;102160.41;5081011;28;45389;-73
2021/07/16 03:53:53;;;;;;;;;3.50;3.50;;;;;26.83;44.91;102177.47;5082012;28;45395;-73
2021/07/16 03:56:18;;;;;;;;;4.00;4.00;;;;;26.58;45.50;102140.31;5082655;28;45337;-73
2021/07/16 03:58:46;;;;;;;;;5.00;4.67;;;;;26.81;45.27;102181.31;5082413;28;45240;-72
2021/07/16 04:01:12;;;;;;;;;5.67;4.00;;;;;26.79;44.99;102172.69;5077106;28;45227;-73
2021/07/16 04:03:38;;;;;;;;;5.00;3.00;;;;;26.91;45.12;102202.44;5066241;28;47611;-73
2021/07/16 04:06:03;;;;;;;;;3.33;3.00;;;;;26.86;44.80;102194.97;5060512;28;45225;-73
2021/07/16 04:08:29;;;;;;;;;4.00;4.00;;;;;26.69;45.08;102170.25;5060039;28;45359;-73
2021/07/16 04:10:54;;;;;;;;;4.00;4.00;;;;;26.80;45.07;102185.03;5061563;28;45446;-73
2021/07/16 04:13:20;;;;;;;;;4.33;4.33;;;;;26.72;45.18;102173.41;5061043;28;45406;-73
2021/07/16 04:15:45;;;;;;;;;4.00;4.00;;;;;26.77;45.22;102178.22;5060521;28;45310;-73
2021/07/16 04:18:11;;;;;;;;;2.00;2.00;;;;;26.84;45.26;102197.00;5060308;28;45306;-73
2021/07/16 04:20:39;;;;;;;;;6.00;3.00;;;;;26.60;45.24;102164.16;5061694;28;45363;-73
2021/07/16 04:23:05;;;;;;;;;5.00;5.00;;;;;26.92;45.31;102215.63;5061197;28;46517;-73
2021/07/16 04:25:30;;;;;;;;;3.00;3.00;;;;;26.67;44.94;102173.13;5061628;28;45384;-73
2021/07/16 04:27:57;;;;;;;;;3.67;3.67;;;;;26.84;44.82;102197.00;5076857;28;45717;-73
2021/07/16 04:30:24;;;;;;;;;5.00;5.00;;;;;26.82;44.95;102202.53;5065517;28;45414;-73
2021/07/16 04:32:52;;;;;;;;;2.00;2.00;;;;;26.61;45.10;102163.16;5061203;28;46585;-73
2021/07/16 04:35:18;;;;;;;;;3.67;3.67;;;;;26.72;44.88;102184.09;5060951;28;45558;-73
2021/07/16 04:37:45;;;;;;;;;3.25;2.75;;;;;26.90;45.28;102214.13;5078587;28;45255;-73
2021/07/16 04:40:12;;;;;;;;;3.00;3.00;;;;;26.63;44.78;102175.31;5060914;28;45474;-73
2021/07/16 04:42:38;;;;;;;;;4.25;4.00;;;;;26.70;45.05;102194.09;5075325;28;45534;-73
2021/07/16 04:45:04;;;;;;;;;3.00;3.00;;;;;26.89;44.92;102225.81;5081332;28;45248;-73
2021/07/16 04:47:30;;;;;;;;;3.00;3.00;;;;;26.90;45.51;102233.66;5061077;28;45303;-73
2021/07/16 04:49:55;;;;;;;;;3.00;3.00;;;;;26.72;44.91;102201.94;5061134;28;45578;-72
2021/07/16 04:52:21;;;;;;;;;5.00;4.00;;;;;26.87;45.33;102225.19;5059520;28;46902;-73
2021/07/16 04:54:47;;;;;;;;;3.25;3.25;;;;;26.89;45.28;102231.16;5061031;28;45517;-73
2021/07/16 04:57:12;;;;;;;;;6.75;5.25;;;;;26.78;45.29;102213.75;5060589;28;45335;-72
2021/07/16 04:59:38;;;;;;;;;3.50;3.50;;;;;26.79;45.13;102218.06;5060851;28;45398;-73
2021/07/16 05:02:05;;;;;;;;;4.50;4.25;;;;;26.78;45.19;102219.09;5076105;28;47060;-73
2021/07/16 05:04:31;;;;;;;;;4.00;4.00;;;;;26.84;45.08;102221.88;5059614;28;45724;-73
2021/07/16 05:06:56;;;;;;;;;3.00;3.00;;;;;26.76;45.22;102215.75;5060653;28;45299;-73
2021/07/16 05:09:23;;;;;;;;;3.67;3.67;;;;;26.71;44.96;102201.09;5060232;28;45262;-73
2021/07/16 05:11:48;;;;;;;;;3.00;3.00;;;;;26.56;45.06;102182.38;5059939;28;46625;-73
2021/07/16 05:14:14;;;;;;;;;3.00;3.00;;;;;26.77;45.40;102217.41;5060346;28;45419;-73
2021/07/16 05:16:39;;;;;;;;;3.67;3.67;;;;;26.73;45.00;102215.09;5060840;28;45343;-73
2021/07/16 05:19:05;;;;;;;;;5.00;5.00;;;;;26.77;45.08;102220.09;5076451;27;45251;-73
2021/07/16 05:21:32;;;;;;;;;2.00;2.00;;;;;26.58;44.70;102185.69;5060028;28;45459;-73
2021/07/16 05:23:58;;;;;;;;;3.50;3.00;;;;;26.69;45.15;102208.47;5060311;28;45430;-73
2021/07/16 05:26:24;;;;;;;;;3.00;3.00;;;;;26.46;44.85;102174.63;5060366;28;45276;-73
2021/07/16 05:28:49;;;;;;;;;4.00;3.00;;;;;26.69;45.05;102208.47;5060341;28;45248;-73
2021/07/16 05:31:17;;;;;;;;;3.75;3.00;;;;;26.49;45.05;102182.25;5063680;28;47171;-73
2021/07/16 05:33:42;;;;;;;;;4.50;3.25;;;;;26.77;45.25;102226.25;5060603;28;45297;-73
2021/07/16 05:36:08;;;;;;;;;3.67;3.67;;;;;26.79;45.52;102237.59;5060364;28;45418;-73
2021/07/16 05:38:34;;;;;;;;;2.50;2.50;;;;;26.78;45.12;102237.78;5073066;28;45244;-73
2021/07/16 05:41:01;;;;;;;;;2.33;2.33;;;;;26.82;45.37;102239.91;5061371;28;47276;-73
2021/07/16 05:43:26;;;;;;;;;2.00;2.00;;;;;26.85;44.78;102249.41;5080430;28;45404;-73
2021/07/16 05:45:52;;;;;;;;;2.75;2.75;;;;;26.88;45.22;102254.34;5080439;28;45329;-73
2021/07/16 05:48:17;;;;;;;;;3.00;3.00;;;;;26.82;44.95;102244.41;5079440;27;45309;-73
2021/07/16 05:50:46;;;;;;;;;4.00;4.00;;;;;26.66;44.96;102224.00;5080051;28;46334;-73
2021/07/16 05:53:11;;;;;;;;;3.00;3.00;;;;;26.77;44.62;102252.13;5079079;28;45267;-73
2021/07/16 05:55:37;;;;;;;;;4.00;2.67;;;;;26.83;44.75;102249.56;5080292;28;45286;-74
2021/07/16 05:58:04;;;;;;;;;2.67;2.67;;;;;26.78;44.99;102243.13;5080323;28;45217;-74
2021/07/16 06:00:30;;;;;;;;;4.00;2.00;;;;;26.83;45.00;102248.72;5079976;28;46055;-74
2021/07/16 06:02:56;;;;;;;;;1.50;1.50;;;;;26.62;44.82;102216.34;5079004;28;45353;-73
2021/07/16 06:05:22;;;;;;;;;2.00;2.00;;;;;26.89;45.27;102258.69;5080187;28;45432;-73
2021/07/16 06:07:48;;;;;;;;;1.00;1.00;;;;;26.89;44.85;102257.88;5079769;27;45387;-74
2021/07/16 06:10:13;;;;;;;;;3.25;3.25;;;;;26.72;45.05;102228.63;5080267;27;45358;-73
2021/07/16 06:12:39;;;;;;;;;3.33;3.33;;;;;26.86;44.97;102253.72;5080096;28;45283;-75
2021/07/16 06:15:06;;;;;;;;;2.50;2.50;;;;;26.76;45.16;102243.28;5079954;28;45208;-74
2021/07/16 06:17:32;;;;;;;;;4.00;4.00;;;;;26.89;45.07;102265.88;5080278;28;45174;-73
2021/07/16 06:20:01;;;;;;;;;4.75;2.25;;;;;26.87;44.82;102266.06;5080069;28;46051;-75
2021/07/16 06:22:27;;;;;;;;;3.00;3.00;;;;;26.73;45.12;102244.47;5078887;28;45342;-73
2021/07/16 06:24:52;;;;;;;;;3.00;3.00;;;;;26.56;44.83;102213.56;5080023;27;45510;-73
2021/07/16 06:27:18;;;;;;;;;3.75;3.75;;;;;26.51;45.42;102206.94;5077061;28;45280;-73
2021/07/16 06:29:44;;;;;;;;;2.33;2.33;;;;;26.57;44.82;102220.59;5064686;28;48170;-73
2021/07/16 06:32:10;;;;;;;;;6.33;5.33;;;;;26.65;45.15;102244.53;5075445;28;45254;-72
2021/07/16 06:34:36;;;;;;;;;3.33;3.00;;;;;26.78;45.00;102264.47;5059681;28;45305;-72
2021/07/16 06:37:02;;;;;;;;;2.67;2.67;;;;;26.87;45.03;102274.06;5066575;28;45499;-70
2021/07/16 06:39:27;;;;;;;;;3.00;3.00;;;;;26.86;45.23;102280.41;5063904;27;45405;-70
2021/07/16 06:41:53;;;;;;;;;2.67;2.67;;;;;26.69;45.21;102264.53;5066310;28;45244;-70
2021/07/16 06:44:18;;;;;;;;;3.33;3.33;;;;;26.76;45.29;102264.63;5079697;28;45246;-69
2021/07/16 06:46:44;;;;;;;;;2.00;2.00;;;;;26.90;45.00;102286.25;5079864;28;45268;-70
2021/07/16 06:49:09;;;;;;;;;3.00;3.00;;;;;26.71;45.05;102257.16;5079418;28;45375;-70
2021/07/16 06:51:35;;;;;;;;;3.00;3.00;;;;;26.79;45.05;102282.13;5079328;28;45368;-69
2021/07/16 06:54:02;;;;;;;;;5.00;4.00;;;;;26.69;45.24;102258.34;5079481;28;45291;-69
2021/07/16 06:56:27;;;;;;;;;3.67;3.67;;;;;26.82;45.35;102282.63;5071380;28;45324;-69
2021/07/16 06:58:53;;;;;;;;;3.00;3.00;;;;;26.85;45.37;102282.25;5058574;28;46386;-71
2021/07/16 07:01:19;;;;;;;;;2.33;2.33;;;;;26.83;45.18;102292.28;5075507;28;45735;-71
2021/07/16 07:03:45;;;;;;;;;3.00;3.00;;;;;26.80;45.47;102283.81;5062380;28;45517;-70
2021/07/16 07:06:10;;;;;;;;;2.33;2.33;;;;;26.77;45.41;102279.66;5062085;28;45536;-73
2021/07/16 07:08:36;;;;;;;;;4.00;4.00;;;;;26.94;45.53;102300.88;5062052;28;46385;-72
2021/07/16 07:11:01;;;;;;;;;3.67;3.67;;;;;26.73;45.33;102267.66;5062043;28;45390;-73
2021/07/16 07:13:27;;;;;;;;;3.00;3.00;;;;;26.94;45.03;102307.06;5062371;28;45245;-72
2021/07/16 07:15:52;;;;;;;;;4.00;4.00;;;;;26.84;45.48;102285.09;5062418;28;45312;-73
2021/07/16 07:18:17;;;;;;;;;3.67;3.67;;;;;26.93;45.75;102299.25;5061139;28;46872;-72
2021/07/16 07:20:43;;;;;;;;;5.33;5.33;;;;;26.93;45.47;102302.72;5062569;28;45220;-73
2021/07/16 07:23:08;;;;;;;;;4.75;3.50;;;;;26.78;45.44;102275.16;5062543;28;45200;-74
2021/07/16 07:25:34;;;;;;;;;3.25;3.25;;;;;26.88;46.00;102288.25;5062484;28;45450;-75
2021/07/16 07:27:59;;;;;;;;;1.00;1.00;;;;;26.98;45.38;102304.03;5060910;28;45347;-75
2021/07/16 07:30:25;;;;;;;;;6.25;4.75;;;;;26.96;45.40;102298.88;5066742;28;45424;-74
2021/07/16 07:32:50;;;;;;;;;6.00;4.00;;;;;26.94;45.78;102296.38;5062306;28;45249;-72
2021/07/16 07:35:17;;;;;;;;;3.00;3.00;;;;;26.80;45.37;102276.63;5061126;28;45474;-72
2021/07/16 07:37:42;;;;;;;;;7.50;7.00;;;;;26.98;45.88;102302.22;5070091;28;47438;-71
2021/07/16 07:40:11;;;;;;;;;3.33;3.33;;;;;26.96;45.89;102297.03;5059304;28;45398;-71
2021/07/16 07:42:36;;;;;;;;;3.25;3.25;;;;;27.03;44.39;102310.50;5076826;28;45253;-73
2021/07/16 07:45:03;;;;;;;;;5.00;5.00;;;;;26.96;44.63;102301.53;5081828;28;45315;-73
2021/07/16 07:47:32;;;;;;;;;5.00;4.00;;;;;27.00;44.12;102310.88;5082354;28;45555;-72
2021/07/16 07:49:59;;;;;;;;;5.00;5.00;;;;;26.70;44.42;102268.84;5082636;28;45429;-72
2021/07/16 07:52:25;;;;;;;;;6.25;4.25;;;;;26.92;44.40;102300.25;5081084;28;45262;-75
2021/07/16 07:54:51;;;;;;;;;6.50;4.75;;;;;26.96;43.17;102305.03;5082127;28;45374;-74
2021/07/16 07:57:16;;;;;;;;;3.75;3.75;;;;;26.80;42.76;102297.16;5074813;28;46318;-72
2021/07/16 07:59:43;;;;;;;;;6.25;6.25;;;;;26.81;42.49;102307.66;5069009;28;45280;-73
2021/07/16 08:02:09;;;;;;;;;4.50;4.50;;;;;26.83;42.29;102315.47;5061974;28;45323;-71
2021/07/16 08:04:36;;;;;;;;;5.00;4.33;;;;;26.65;41.18;102294.44;5060623;28;45464;-71
2021/07/16 08:07:02;;;;;;;;;8.00;6.25;;;;;26.68;40.79;102318.09;5058770;28;46356;-74
2021/07/16 08:09:28;;;;;;;;;6.50;5.00;;;;;26.58;40.27;102320.97;5061055;28;45299;-73
2021/07/16 08:11:53;;;;;;;;;5.25;5.00;;;;;26.38;40.51;102314.22;5061182;28;45670;-79
2021/07/16 08:14:19;;;;;;;;;8.67;5.00;;;;;26.36;40.95;102312.75;5059732;28;45394;-72
2021/07/16 08:16:46;;;;;;;;;8.50;6.00;;;;;26.36;41.17;102310.06;5061092;28;46725;-76
2021/07/16 08:19:18;;;;;;;;;6.25;5.25;;;;;26.33;41.38;102305.06;5060347;28;45258;-73
2021/07/16 08:21:49;;;;;;;;;7.25;6.00;;;;;26.52;41.99;102333.19;5061576;28;45514;-74
2021/07/16 08:24:15;;;;;;;;;6.00;5.75;;;;;26.49;42.04;102315.69;5061425;28;45308;-72
2021/07/16 08:26:42;;;;;;;;;8.00;5.00;;;;;26.51;41.39;102319.03;5059873;28;47289;-72
2021/07/16 08:29:08;;;;;;;;;8.50;6.00;;;;;26.36;41.84;102289.53;5061921;28;45348;-72
2021/07/16 08:31:34;;;;;;;;;6.50;5.00;;;;;26.54;42.17;102323.19;5064711;27;45319;-73
2021/07/16 08:34:00;;;;;;;;;5.25;5.25;;;;;26.48;42.29;102310.53;5060935;28;45209;-72
2021/07/16 08:36:25;;;;;;;;;6.75;5.50;;;;;26.41;42.60;102297.03;5062947;28;45317;-73
2021/07/16 08:38:51;;;;;;;;;5.50;4.25;;;;;26.74;42.33;102341.41;5071665;28;45358;-72
2021/07/16 08:41:16;;;;;;;;;6.00;4.00;;;;;26.72;42.06;102336.25;5064699;28;45235;-72
2021/07/16 08:43:43;;;;;;;;;5.50;4.25;;;;;26.84;42.63;102357.19;5081106;28;45195;-72
2021/07/16 08:46:10;;;;;;;;;8.25;4.00;;;;;26.63;42.54;102323.94;5081356;28;45244;-72
2021/07/16 08:48:40;;;;;;;;;6.00;5.00;;;;;26.79;42.61;102339.03;5081324;28;45294;-72
2021/07/16 08:51:06;;;;;;;;;8.00;5.75;;;;;26.76;42.88;102328.72;5081022;28;45197;-73
2021/07/16 08:53:33;;;;;;;;;5.00;5.00;;;;;26.72;42.85;102335.44;5077724;28;45501;-73
2021/07/16 08:55:59;;;;;;;;;5.75;5.50;;;;;26.90;43.05;102355.66;5060645;28;45215;-73
2021/07/16 08:58:24;;;;;;;;;6.50;5.50;;;;;26.93;43.07;102352.66;5059172;28;46233;-72
2021/07/16 09:00:50;;;;;;;;;9.00;6.75;;;;;26.90;43.00;102340.50;5060552;28;45397;-73
2021/07/16 09:03:16;;;;;;;;;9.00;5.33;;;;;26.78;43.25;102320.53;5061105;28;45486;-73
2021/07/16 09:05:43;;;;;;;;;6.33;5.00;;;;;26.88;43.36;102337.13;5060352;28;45462;-72
2021/07/16 09:08:20;;;;;;;;;4.67;4.67;;;;;27.07;43.58;102356.38;5060544;28;45394;-73
2021/07/16 09:10:48;;;;;;;;;5.67;5.00;;;;;27.09;43.51;102353.53;5060792;28;45240;-72
2021/07/16 09:13:14;;;;;;;;;6.25;4.75;;;;;26.98;43.55;102334.25;5060502;28;45268;-72
2021/07/16 09:15:47;;;;;;;;;5.75;5.00;;;;;27.02;43.26;102342.72;5060414;28;45523;-72
2021/07/16 09:18:27;;;;;;;;;3.00;3.00;;;;;26.92;43.04;102326.94;5060606;28;45225;-72
2021/07/16 09:21:06;;;;;;;;;6.75;5.00;;;;;27.18;43.63;102352.50;5060385;28;45308;-72
2021/07/16 09:23:45;;;;;;;;;5.00;3.00;;;;;27.21;43.70;102357.47;5060556;28;45208;-72
2021/07/16 09:26:17;;;;;;;;;4.33;4.00;;;;;27.16;43.63;102354.53;5058792;28;45331;-72
2021/07/16 09:28:44;;;;;;;;;5.00;5.00;;;;;27.16;43.59;102346.50;5066720;28;45227;-72
2021/07/16 09:31:16;;;;;;;;;4.00;3.67;;;;;27.12;43.27;102337.13;5078116;27;45362;-72
2021/07/16 09:34:00;;;;;;;;;5.67;4.00;;;;;27.27;43.28;102366.63;5060455;28;45244;-72
2021/07/16 09:36:26;;;;;;;;;7.33;5.00;;;;;27.26;43.56;102365.78;5061918;28;45424;-72
2021/07/16 09:39:10;;;;;;;;;3.33;3.33;;;;;27.27;43.53;102364.75;5075774;28;45415;-74
2021/07/16 09:42:05;;;;;;;;;6.00;4.00;;;;;27.27;43.82;102364.75;5064891;28;45261;-73
2021/07/16 09:44:40;;;;;;;;;5.00;5.00;;;;;27.29;43.66;102359.25;5058233;28;45468;-73
2021/07/16 09:47:16;;;;;;;;;4.67;4.67;;;;;27.29;43.23;102364.59;5075857;28;47207;-73
2021/07/16 09:49:43;;;;;;;;;8.00;4.33;;;;;27.28;43.33;102369.13;5059844;28;45302;-73
2021/07/16 09:52:11;;;;;;;;;6.00;6.00;;;;;27.31;43.62;102365.25;5060294;28;45379;-73
2021/07/16 09:54:37;;;;;;;;;5.00;4.75;;;;;27.26;43.43;102348.94;5066689;28;45411;-74
2021/07/16 09:57:04;;;;;;;;;7.00;6.00;;;;;27.20;43.61;102334.44;5079863;28;45383;-73
2021/07/16 09:59:29;;;;;;;;;6.75;4.00;;;;;27.22;43.62;102336.94;5080578;28;45286;-74
2021/07/16 10:01:55;;;;;;;;;5.67;5.67;;;;;27.35;43.85;102355.03;5080406;28;45220;-72
2021/07/16 10:04:21;;;;;;;;;4.33;4.33;;;;;27.17;43.61;102326.78;5080501;28;45283;-74
2021/07/16 10:06:51;;;;;;;;;4.25;4.25;;;;;27.00;43.25;102299.34;5079618;28;47224;-73
2021/07/16 10:09:18;;;;;;;;;5.00;5.00;;;;;27.26;43.45;102343.59;5079649;28;45287;-73
2021/07/16 10:11:53;;;;;;;;;3.75;3.75;;;;;27.29;43.25;102343.22;5080103;28;45256;-74
2021/07/16 10:14:19;;;;;;;;;5.75;4.75;;;;;27.32;43.56;102350.06;5078790;28;45453;-73
2021/07/16 10:16:46;;;;;;;;;5.00;5.00;;;;;27.47;43.64;102363.44;5079736;28;45280;-73
2021/07/16 10:19:13;;;;;;;;;5.00;5.00;;;;;27.48;43.73;102371.28;5080252;28;45257;-74
2021/07/16 10:21:40;;;;;;;;;4.00;3.67;;;;;27.39;43.27;102337.63;5080094;28;45177;-73
2021/07/16 10:24:06;;;;;;;;;5.67;5.33;;;;;27.44;43.64;102358.47;5079960;28;45350;-71
2021/07/16 10:26:33;;;;;;;;;4.33;4.33;;;;;27.42;43.80;102363.16;5079676;28;46194;-71
2021/07/16 10:28:58;;;;;;;;;6.00;4.00;;;;;27.37;43.47;102355.69;5078449;28;45434;-71
2021/07/16 10:31:32;;;;;;;;;7.00;6.00;;;;;27.49;43.34;102359.59;5075436;27;45400;-73
2021/07/16 10:34:12;;;;;;;;;6.75;6.75;;;;;27.21;43.31;102316.56;5059620;28;45440;-74
2021/07/16 10:36:37;;;;;;;;;6.00;5.00;;;;;27.48;43.61;102365.13;5063340;28;46402;-74
2021/07/16 10:39:08;;;;;;;;;6.00;6.00;;;;;27.52;43.89;102377.09;5078378;28;45849;-73
2021/07/16 10:41:37;;;;;;;;;6.50;3.00;;;;;27.40;43.80;102364.16;5068125;28;45312;-73
2021/07/16 10:44:07;;;;;;;;;7.00;4.00;;;;;27.43;43.71;102357.63;5082684;28;45490;-73
2021/07/16 10:46:35;;;;;;;;;6.00;6.00;;;;;27.34;43.44;102348.03;5077050;27;47265;-73
2021/07/16 10:49:03;;;;;;;;;2.25;2.25;;;;;27.33;43.41;102339.16;5062570;28;45300;-72
2021/07/16 10:51:31;;;;;;;;;5.00;5.00;;;;;27.47;43.64;102358.94;5061714;28;45351;-73
2021/07/16 10:53:59;;;;;;;;;5.50;5.50;;;;;27.53;43.35;102373.44;5061261;28;45652;-73
2021/07/16 10:56:46;;;;;;;;;4.25;4.25;;;;;27.54;43.45;102375.06;5062822;28;46266;-72
2021/07/16 10:59:48;;;;;;;;;5.00;5.00;;;;;27.36;43.61;102357.53;5061577;28;45480;-73
2021/07/16 11:02:38;;;;;;;;;6.00;6.00;;;;;27.54;43.36;102385.75;5062846;28;45296;-74
2021/07/16 11:05:31;;;;;;;;;5.50;5.50;;;;;27.54;43.42;102369.72;5061205;28;45805;-73
2021/07/16 11:08:01;;;;;;;;;6.75;6.25;;;;;27.38;43.79;102354.66;5072356;28;46183;-73
2021/07/16 11:10:58;;;;;;;;;7.33;5.00;;;;;27.54;43.83;102382.25;5082648;28;45382;-73
2021/07/16 11:13:31;;;;;;;;;5.67;5.67;;;;;27.58;44.20;102380.91;5081953;28;45318;-73
2021/07/16 11:15:56;;;;;;;;;7.50;6.50;;;;;27.42;43.76;102361.31;5082956;28;45320;-73
2021/07/16 11:18:27;;;;;;;;;4.50;4.50;;;;;27.32;43.40;102334.03;5082493;28;45412;-73
2021/07/16 11:20:53;;;;;;;;;3.00;3.00;;;;;27.44;44.08;102353.94;5083006;27;45472;-73
2021/07/16 11:23:20;;;;;;;;;6.00;6.00;;;;;27.56;43.52;102366.91;5082719;28;45481;-73
2021/07/16 11:25:45;;;;;;;;;9.25;4.75;;;;;27.52;43.48;102358.38;5081139;28;46000;-73